Date,TemperatureHighF,TemperatureAvgF,TemperatureLowF,DewpointHighF,DewpointAvgF,DewpointLowF,HumidityHigh,HumidityAvg,HumidityLow,PressureMaxIn,PressureMinIn,WindSpeedMaxMPH,WindSpeedAvgMPH,GustSpeedMaxMPH,PrecipitationSumIn
2013-1-1,77.4,60.2,47.3,60.1,52.0,43.0,89,76,54,30.25,30.03,9,1,9,0.00
2013-1-2,77.4,62.4,52.4,67.0,56.7,48.2,89,82,69,30.10,29.98,8,1,8,0.00
2013-1-3,61.4,57.5,50.2,57.7,53.7,46.5,90,87,82,30.26,30.08,2,0,4,0.00
2013-1-4,59.0,52.2,47.9,52.9,47.6,43.7,89,84,78,30.34,30.23,4,0,4,0.00
2013-1-5,64.3,53.4,41.6,53.1,46.9,37.1,86,79,65,30.36,30.26,8,0,8,0.00
2013-1-6,64.4,57.1,52.0,57.1,52.6,48.5,90,85,75,30.27,30.12,4,0,4,0.00
2013-1-7,64.1,55.4,47.5,54.2,49.4,42.1,88,80,68,30.30,30.19,11,0,11,0.00
2013-1-8,68.9,61.0,58.1,63.1,56.8,53.0,91,86,80,30.29,30.20,2,0,2,0.00
2013-1-9,73.3,64.6,59.9,67.8,61.1,57.4,92,89,78,30.36,30.24,6,0,6,0.00
2013-1-10,78.8,67.5,60.1,69.0,62.8,57.5,92,85,67,30.36,30.28,7,0,7,0.00
2013-1-11,83.5,68.1,59.0,68.1,61.4,56.2,91,80,50,30.29,30.17,8,2,8,0.00
2013-1-12,82.6,68.1,58.7,69.0,61.4,54.8,90,80,52,30.21,30.11,8,1,8,0.00
2013-1-13,81.0,66.5,56.0,66.5,59.9,52.0,90,80,58,30.18,30.08,8,1,8,0.00
2013-1-14,81.4,67.8,57.2,67.2,60.3,53.4,90,78,57,30.21,30.11,9,2,9,0.00
2013-1-15,81.4,69.2,59.8,67.8,61.9,55.6,89,78,60,30.17,30.06,10,2,10,0.00
2013-1-16,82.8,70.7,62.3,67.4,61.8,56.3,89,75,50,30.10,29.98,8,2,8,0.00
2013-1-17,76.9,59.8,43.2,64.4,51.8,33.4,89,75,59,30.14,29.89,12,2,12,0.00
2013-1-18,59.4,51.4,42.1,46.8,41.6,33.3,81,69,59,30.39,30.14,9,1,9,0.00
2013-1-19,62.1,55.7,50.9,54.1,49.8,43.8,87,81,73,30.36,30.19,5,1,5,0.00
2013-1-20,72.2,59.3,51.7,53.7,50.4,45.4,89,74,48,30.21,30.08,6,0,6,0.00
2013-1-21,71.1,57.9,48.8,53.5,47.4,42.9,86,70,47,30.13,30.02,5,0,5,0.00
2013-1-22,65.9,52.7,42.8,43.0,35.5,30.4,71,54,31,30.30,30.08,5,0,5,0.00
2013-1-23,65.9,48.8,35.6,39.6,34.0,28.1,77,59,34,30.41,30.27,6,0,6,0.00
2013-1-24,74.5,57.3,41.9,53.6,45.1,34.9,81,65,43,30.30,30.18,7,1,8,0.00
2013-1-25,76.5,60.5,54.4,57.6,52.1,48.5,86,75,39,30.32,30.17,8,1,8,0.00
2013-1-26,76.7,59.4,49.7,62.4,51.9,44.3,88,77,58,30.23,30.15,8,1,8,0.00
2013-1-28,74.2,64.9,61.6,64.2,59.5,57.5,87,83,71,30.29,30.26,2,0,2,0.00
2013-1-29,79.6,67.8,57.6,68.5,62.0,54.1,90,82,67,30.27,30.10,12,2,12,0.00
2013-1-30,85.3,74.3,62.6,66.6,64.0,56.3,88,72,52,30.11,29.78,14,4,14,0.00
2013-1-31,63.0,53.7,41.2,56.3,38.3,29.4,85,59,30,30.24,29.88,10,1,10,0.00
2013-2-1,67.7,50.0,35.5,38.4,33.4,27.9,76,56,31,30.32,30.23,10,1,10,0.00
2013-2-2,65.9,49.8,37.3,46.4,37.0,28.0,79,62,47,30.34,30.15,6,0,6,0.00
2013-2-3,69.7,51.9,38.5,43.3,35.9,30.0,84,59,25,30.18,30.03,9,1,9,0.00
2013-2-4,44.1,41.4,39.2,33.7,33.0,32.2,78,72,65,30.10,30.06,1,0,1,0.00
2013-2-7,75.2,68.3,66.4,63.9,62.6,61.7,86,82,67,29.93,29.81,12,3,12,0.00
2013-2-8,73.1,63.3,54.5,64.0,54.9,48.9,87,75,55,30.09,29.82,9,1,9,0.00
2013-2-9,66.2,57.0,48.8,52.8,47.5,43.1,87,72,49,30.26,30.08,10,1,10,0.00
2013-2-10,76.0,64.7,51.7,59.0,54.7,46.4,86,71,52,30.31,30.16,16,3,16,0.00
2013-2-11,83.3,70.3,63.2,64.9,60.6,56.7,83,72,51,30.19,30.05,13,2,13,0.00
2013-2-12,84.1,70.4,61.2,68.1,62.8,56.3,91,78,53,30.08,29.86,10,2,10,0.00
2013-2-13,77.4,71.2,65.3,72.0,63.9,49.0,90,78,52,29.92,29.78,12,2,12,0.00
2013-2-14,65.2,54.4,48.6,54.1,48.5,43.7,86,81,60,30.08,29.90,6,0,6,0.00
2013-2-15,54.4,46.4,42.5,47.9,41.6,38.5,87,83,73,30.09,29.97,3,0,3,0.00
2013-2-16,60.8,49.0,41.0,47.3,40.4,23.0,87,73,49,30.12,29.90,9,1,9,0.00
2013-2-17,55.4,42.3,33.1,24.3,20.3,14.0,68,44,20,30.35,30.12,8,1,8,0.00
2013-2-18,64.1,46.1,28.6,42.5,33.5,21.7,80,63,41,30.40,30.21,10,1,10,0.00
2013-2-19,79.9,61.7,43.6,60.1,50.3,37.8,85,68,42,30.23,29.99,16,2,16,0.00
2013-2-20,66.1,55.9,47.0,55.9,42.0,32.0,84,61,36,30.17,30.06,6,0,6,0.00
2013-2-21,69.8,56.1,41.6,55.7,46.5,36.5,84,71,49,30.15,30.04,7,1,7,0.00
2013-2-22,84.4,70.9,60.8,69.2,63.4,55.4,89,78,58,30.08,29.98,11,2,11,0.00
2013-2-23,85.3,74.2,63.0,68.1,64.8,58.6,89,74,51,29.98,29.83,14,2,14,0.00
2013-2-24,75.4,65.2,59.4,63.2,56.4,45.2,90,75,37,30.00,29.84,8,1,8,0.00
2013-2-25,67.3,63.0,59.0,65.0,59.7,53.9,93,89,80,29.95,29.79,10,1,10,1.55
2013-2-26,80.8,69.7,61.0,69.9,62.2,53.5,92,79,42,29.81,29.65,13,3,13,0.39
2013-2-27,72.4,61.7,54.4,54.0,48.2,43.3,79,63,42,29.95,29.81,8,1,8,0.00
2013-2-28,72.7,59.8,46.6,48.7,42.4,34.8,80,55,35,29.95,29.82,10,1,10,0.00
2013-3-1,64.8,54.5,48.2,40.5,36.9,33.2,61,52,38,29.98,29.87,9,1,9,0.00
2013-3-2,59.4,47.7,38.7,37.1,32.4,27.7,78,57,36,30.01,29.90,12,1,12,0.00
2013-3-3,49.0,41.9,33.3,31.0,28.5,24.3,77,60,46,30.12,29.96,9,1,9,0.00
2013-3-4,66.4,46.7,31.3,39.3,30.8,23.9,77,57,28,30.21,30.10,7,1,7,0.00
2013-3-5,79.6,60.0,39.2,56.3,44.8,33.7,82,61,29,30.17,29.87,12,2,12,0.00
2013-3-6,64.1,53.9,44.3,59.1,36.5,28.9,86,54,30,30.11,29.84,10,2,10,0.03
2013-3-7,63.0,49.4,37.4,45.2,37.1,28.5,77,63,47,30.22,30.11,8,1,8,0.00
2013-3-8,68.6,51.8,38.9,50.7,41.6,33.6,87,70,41,30.22,30.15,9,0,9,0.00
2013-3-9,68.8,54.3,40.3,50.2,44.0,35.8,88,70,47,30.26,30.16,10,1,10,0.00
2013-3-10,75.8,61.6,47.2,60.8,51.6,42.3,90,71,51,30.20,30.13,14,2,14,0.00
2013-3-11,77.6,64.8,51.5,60.1,55.0,47.0,89,72,53,30.13,29.89,14,3,14,0.00
2013-3-12,71.3,65.3,53.5,66.9,58.2,45.0,90,78,55,30.00,29.82,12,2,12,0.04
2013-3-13,74.3,60.0,49.5,45.4,37.9,32.4,75,47,24,30.16,29.99,7,1,7,0.00
2013-3-14,58.9,50.8,42.3,38.4,32.7,26.8,72,50,40,30.29,30.14,9,1,9,0.00
2013-3-15,73.1,53.9,36.4,47.5,38.5,30.3,84,59,31,30.26,30.10,8,1,8,0.00
2013-3-16,83.3,64.0,46.8,54.7,46.4,38.3,82,56,31,30.14,29.97,10,1,10,0.00
2013-3-17,81.0,64.1,46.6,57.6,48.9,38.8,80,60,32,30.10,29.97,10,1,10,0.00
2013-3-18,83.9,69.7,60.7,65.2,59.4,54.6,86,71,47,30.04,29.84,9,1,9,0.00
2013-3-19,84.6,69.8,61.4,62.8,58.6,54.8,84,69,44,30.00,29.87,8,1,8,0.00
2013-3-20,67.7,60.3,51.1,56.2,52.0,45.9,83,74,61,30.00,29.82,7,0,7,0.00
2013-3-21,70.7,55.0,42.8,46.1,36.9,26.7,86,56,23,29.93,29.83,9,1,9,0.00
2013-3-22,66.1,55.8,45.2,48.6,40.8,34.8,75,58,40,30.04,29.90,9,1,9,0.00
2013-3-23,71.3,60.9,53.6,64.6,56.4,46.3,93,85,73,29.98,29.77,6,1,6,0.00
2013-3-24,85.9,71.9,62.3,72.7,65.1,59.9,92,81,52,29.79,29.50,12,3,12,0.00
2013-3-25,68.4,60.7,51.3,61.7,39.3,27.0,83,48,25,30.00,29.58,16,2,16,0.00
2013-3-26,59.8,49.7,40.5,32.4,28.4,24.8,55,44,31,30.22,30.00,12,1,12,0.00
2013-3-27,65.0,49.2,37.1,39.9,32.2,26.6,72,54,31,30.28,30.18,7,1,7,0.00
2013-3-28,67.9,47.5,37.8,40.1,34.8,31.1,79,64,31,30.27,30.20,5,0,5,0.00
2013-3-29,76.0,56.6,40.7,48.1,40.8,34.6,84,60,26,30.31,30.19,9,1,9,0.00
2013-3-30,80.8,61.9,43.9,53.3,45.9,37.8,83,60,28,30.24,30.08,11,2,11,0.00
2013-3-31,85.0,70.3,50.9,58.5,52.3,42.5,80,55,37,30.11,29.93,11,2,11,0.00
2013-4-1,84.8,69.7,60.8,69.3,60.8,54.3,85,74,51,29.98,29.86,9,1,9,0.17
2013-4-2,76.9,65.6,53.6,59.1,51.8,45.1,87,64,37,30.10,29.95,10,1,10,0.01
2013-4-3,80.5,64.8,52.6,64.0,57.5,47.3,91,78,54,30.08,30.00,11,1,11,0.19
2013-4-4,79.0,70.8,64.6,70.9,64.7,61.4,92,82,66,30.04,29.82,11,2,11,0.37
2013-4-5,68.2,59.4,55.3,63.0,55.5,50.8,90,87,82,29.99,29.78,4,0,4,0.11
2013-4-6,70.0,61.3,51.7,56.9,53.4,48.2,89,76,60,30.14,29.98,11,1,11,0.00
2013-4-7,79.4,67.5,57.6,63.7,57.6,53.5,88,72,52,30.17,30.06,14,2,14,0.00
2013-4-8,83.7,65.9,54.2,68.4,57.9,50.0,89,77,55,30.13,30.05,10,1,10,0.00
2013-4-9,84.2,70.7,58.3,69.6,61.5,54.4,90,74,56,30.17,30.05,13,2,13,0.00
2013-4-10,83.9,71.4,57.2,70.7,62.6,52.7,89,75,58,30.12,29.97,13,2,13,0.00
2013-4-11,85.9,75.2,69.1,74.1,68.4,63.9,88,80,64,29.97,29.78,16,4,16,0.01
2013-4-12,90.4,79.1,70.7,74.5,68.8,63.8,89,72,51,29.85,29.72,14,3,16,0.00
2013-4-13,82.6,71.2,60.8,66.6,55.8,48.3,82,60,37,29.98,29.83,8,1,8,0.00
2013-4-14,76.9,65.2,56.9,65.4,59.2,51.5,91,81,65,29.98,29.85,9,1,9,0.98
2013-4-15,87.5,71.0,61.4,70.6,64.0,58.5,92,80,53,30.09,29.77,8,1,8,0.00
2013-4-16,82.3,71.8,64.3,70.3,65.4,61.4,92,81,62,30.16,30.05,8,1,8,0.00
2013-4-17,78.8,70.4,62.3,69.5,64.5,58.7,91,82,69,30.15,30.06,8,0,8,0.00
2013-4-18,85.9,74.2,63.0,72.7,66.1,58.6,90,77,57,30.06,29.94,10,2,10,0.00
2013-4-19,92.5,77.9,71.6,74.2,69.9,64.8,88,78,49,29.98,29.83,13,3,13,0.27
2013-4-20,70.7,58.0,51.8,64.6,52.8,47.3,90,83,73,30.15,29.95,5,0,5,0.41
2013-4-21,68.4,64.5,58.5,62.2,58.0,51.3,89,79,72,30.16,30.06,8,1,8,0.03
2013-4-22,65.9,63.2,60.5,62.4,58.8,54.8,90,86,75,30.11,30.00,9,1,9,0.13
2013-4-23,72.4,64.9,55.8,59.9,56.0,50.3,84,74,61,30.13,30.02,10,1,10,0.00
2013-4-24,83.5,68.5,52.0,68.4,58.2,47.9,90,72,50,30.12,30.05,10,1,10,0.00
2013-4-25,89.3,73.6,58.5,69.8,62.7,53.6,87,70,47,30.16,30.06,8,1,8,0.00
2013-4-26,80.1,70.4,61.0,68.0,61.5,54.5,89,74,60,30.26,30.12,9,1,9,0.00
2013-4-27,82.6,71.4,59.6,65.6,60.9,55.1,89,71,46,30.23,30.13,9,1,9,0.00
2013-4-28,83.3,73.2,64.6,66.9,63.6,58.9,87,73,54,30.13,29.96,13,3,13,0.00
2013-4-29,86.0,72.8,65.7,70.0,64.2,59.6,88,76,53,29.99,29.87,12,1,12,0.53
2013-4-30,85.3,71.2,63.0,72.3,64.4,59.1,89,80,58,30.00,29.90,9,1,9,0.00
2013-5-1,78.5,69.9,63.5,69.1,64.2,58.6,91,82,72,30.03,29.94,10,1,10,0.00
2013-5-2,70.2,68.6,67.0,67.1,65.6,63.5,92,90,87,29.99,29.87,10,2,10,3.09
2013-5-3,70.2,67.8,65.5,65.4,63.5,60.1,92,86,74,29.87,29.79,14,3,14,1.46
2013-5-4,70.4,68.3,65.5,67.2,64.6,59.2,92,88,72,29.79,29.66,13,3,13,0.84
2013-5-5,80.3,69.3,60.8,67.6,58.3,50.6,92,71,38,29.84,29.66,7,1,7,0.26
2013-5-6,77.0,67.0,56.2,55.7,51.3,48.0,85,59,40,29.93,29.80,8,1,8,0.00
2013-5-7,79.6,68.2,54.4,61.6,55.1,47.6,83,64,46,29.98,29.86,11,2,11,0.00
2013-5-8,84.6,71.0,56.5,65.3,58.3,50.8,85,66,42,30.05,29.95,8,1,8,0.00
2013-5-9,88.2,73.9,61.2,68.4,60.9,55.1,90,66,41,30.09,30.02,10,1,10,0.00
2013-5-10,90.4,75.7,59.9,70.0,63.5,54.5,87,68,43,30.08,29.95,11,2,11,0.00
2013-5-11,90.7,76.2,68.0,73.3,66.9,62.4,84,74,51,30.00,29.87,11,1,11,0.01
2013-5-12,87.8,76.5,67.1,71.1,65.0,58.7,90,69,49,29.98,29.88,8,1,8,0.00
2013-5-13,82.1,70.8,58.9,58.5,50.9,43.8,75,52,28,30.10,29.95,5,0,5,0.00
2013-5-14,82.3,67.1,50.0,55.3,49.0,41.9,78,55,26,30.20,30.10,8,1,8,0.00
2013-5-15,59.2,58.3,57.4,49.9,49.2,48.2,72,72,70,30.16,30.12,0,0,0,0.00
2013-5-17,87.5,79.2,69.7,69.8,66.7,62.8,80,66,51,30.07,30.02,12,2,12,0.00
2013-5-18,90.9,76.9,64.8,74.3,67.8,60.2,87,74,54,30.10,29.98,10,2,10,0.12
2013-5-19,92.5,77.4,67.7,76.7,69.6,63.4,88,78,56,30.05,29.96,12,2,12,0.02
2013-5-20,84.2,76.3,69.5,74.9,69.9,65.6,89,81,67,30.06,29.97,8,1,8,0.03
2013-5-21,87.7,76.9,67.9,76.2,69.1,63.8,90,78,61,30.01,29.91,10,2,10,0.00
2013-5-22,84.6,75.3,66.4,75.0,68.6,62.1,90,80,67,29.96,29.87,9,1,9,0.00
2013-5-23,91.1,78.5,67.9,75.0,69.2,63.7,90,74,54,29.93,29.85,9,1,9,0.05
2013-5-24,92.2,79.9,68.4,72.2,63.3,55.0,88,61,33,30.06,29.89,7,0,7,0.00
2013-5-25,83.3,74.2,63.4,61.4,56.7,53.6,81,56,39,30.21,30.05,7,1,9,0.00
2013-5-26,87.7,72.6,57.6,66.5,55.6,49.1,86,58,32,30.19,30.10,9,1,9,0.00
2013-5-27,87.1,73.8,58.5,70.0,61.3,51.8,84,66,50,30.18,30.09,10,2,10,0.00
2013-5-28,85.1,77.0,67.9,70.5,65.8,60.1,80,69,57,30.15,30.08,14,3,14,0.00
2013-5-29,88.0,79.2,72.7,75.3,71.0,66.4,85,76,61,30.13,30.05,12,3,12,0.00
2013-5-30,88.6,79.8,74.0,75.2,72.1,69.2,88,78,63,30.13,30.05,14,3,14,0.12
2013-5-31,87.8,79.3,71.8,74.4,71.0,66.7,88,76,62,30.12,30.04,13,3,13,0.00
2013-6-1,87.5,80.0,74.3,74.1,71.4,68.9,85,76,62,30.06,29.98,13,3,13,0.00
2013-6-2,87.7,80.2,73.3,77.0,73.1,69.0,89,79,68,30.01,29.84,12,3,12,0.00
2013-6-3,97.2,79.9,72.5,77.9,72.3,68.5,89,79,50,29.91,29.81,19,2,19,2.75
2013-6-4,90.7,78.0,70.6,79.0,72.0,66.8,90,82,64,29.98,29.88,7,1,7,0.85
2013-6-5,84.2,76.1,72.4,75.8,71.3,68.6,89,85,73,29.97,29.88,6,1,6,0.05
2013-6-6,79.4,74.7,72.0,75.3,71.4,68.2,92,89,84,29.89,29.51,15,3,15,1.19
2013-6-7,91.4,80.7,71.8,76.2,71.6,68.0,92,75,56,29.86,29.52,15,3,15,0.04
2013-6-8,95.4,81.5,72.5,78.0,72.7,67.6,90,76,51,30.02,29.85,8,2,8,0.01
2013-6-9,90.4,79.9,72.4,77.4,72.8,68.0,87,79,64,30.07,29.98,10,2,10,0.02
2013-6-10,94.0,82.1,73.1,79.2,73.8,69.0,89,77,57,30.05,29.94,12,2,12,0.01
2013-6-11,94.9,83.2,73.3,77.9,73.2,69.2,89,73,53,30.03,29.93,8,1,8,0.00
2013-6-12,98.6,85.5,72.9,80.3,73.7,68.3,89,70,45,30.00,29.90,6,1,6,0.00
2013-6-13,99.4,86.4,76.3,81.0,75.2,70.8,85,70,48,29.93,29.78,9,1,9,0.01
2013-6-14,95.0,81.7,72.7,79.9,73.9,67.1,89,78,57,29.88,29.72,9,2,9,0.12
2013-6-15,89.3,81.9,74.9,73.0,69.6,67.1,90,67,54,30.04,29.88,13,3,13,0.00
2013-6-16,91.1,81.3,70.6,75.0,70.3,64.1,84,70,55,30.07,29.99,10,2,10,0.00
2013-6-17,95.4,83.1,75.2,80.5,74.4,69.0,85,76,59,30.03,29.89,8,2,11,0.02
2013-6-18,96.5,84.4,71.3,78.0,71.8,66.9,88,68,47,29.97,29.84,8,1,8,0.00
2013-6-19,97.9,83.8,73.4,78.6,72.9,68.0,87,71,46,29.97,29.86,10,2,10,0.83
2013-6-20,87.8,79.0,72.0,79.0,72.5,67.2,89,81,70,30.03,29.91,9,1,9,0.00
2013-6-21,89.1,82.2,75.2,76.6,73.0,69.1,84,74,60,30.07,30.00,8,1,8,0.00
2013-6-22,92.0,78.9,73.6,78.8,72.3,68.9,88,81,61,30.07,30.00,8,1,8,1.28
2013-6-23,92.2,81.4,70.9,79.8,73.0,67.1,91,77,57,30.10,30.02,10,1,10,0.00
2013-6-24,94.9,82.8,72.4,78.9,73.3,68.0,87,74,52,30.13,30.03,11,2,11,0.00
2013-6-25,96.8,82.3,72.5,79.0,72.9,67.2,87,74,47,30.11,29.98,8,1,8,0.00
2013-6-26,96.8,81.4,72.4,79.1,72.8,67.2,88,76,50,30.03,29.93,9,1,9,0.01
2013-6-27,97.4,82.5,71.8,80.7,73.6,67.4,88,76,51,29.96,29.81,12,1,12,0.16
2013-6-28,95.2,82.6,76.3,78.7,73.6,70.7,88,75,51,29.86,29.71,9,2,9,0.00
2013-6-29,88.4,81.1,77.0,78.0,73.6,70.3,87,78,62,29.75,29.67,10,2,10,0.25
2013-6-30,94.9,79.6,74.2,79.1,73.0,69.6,89,81,56,29.79,29.70,9,2,9,0.37
2013-7-1,88.9,76.4,72.7,77.5,71.5,68.9,91,85,67,29.95,29.75,14,2,14,1.51
2013-7-2,89.3,76.4,72.4,78.9,72.2,69.3,92,87,69,30.03,29.91,12,2,12,0.27
2013-7-3,91.1,79.6,71.6,80.1,73.7,68.6,92,83,66,30.07,29.99,13,2,14,0.02
2013-7-4,90.7,81.5,74.0,78.7,73.9,70.1,89,78,62,30.09,30.02,18,4,18,0.00
2013-7-5,91.8,81.6,72.7,78.4,73.6,68.5,90,77,64,30.10,30.03,14,3,14,0.00
2013-7-6,91.1,82.1,73.4,78.9,74.0,69.7,90,77,63,30.07,29.99,12,3,12,0.00
2013-7-7,92.0,82.0,71.6,78.8,73.5,67.6,90,76,62,30.08,30.00,12,2,12,0.00
2013-7-8,91.8,82.6,72.0,79.9,73.5,67.6,89,75,61,30.10,30.02,9,2,9,0.00
2013-7-9,92.7,82.4,72.5,79.5,72.7,67.8,89,74,56,30.10,30.00,10,2,10,0.00
2013-7-10,96.3,81.9,70.2,79.4,72.1,65.4,89,73,55,30.02,29.88,11,2,11,0.00
2013-7-11,95.4,83.1,73.4,78.7,73.1,68.7,87,73,53,29.93,29.79,9,2,11,0.00
2013-7-12,93.2,79.6,73.6,79.1,72.6,68.7,88,80,57,29.85,29.78,7,1,7,0.10
2013-7-13,93.1,79.5,71.6,80.5,72.6,67.9,89,80,61,29.92,29.81,10,1,10,0.31
2013-7-14,89.3,78.4,71.1,77.5,71.8,67.1,90,81,61,30.04,29.89,8,2,10,0.01
2013-7-15,89.1,79.8,71.5,80.3,73.4,66.9,89,81,68,30.08,30.00,11,1,12,0.22
2013-7-16,90.4,82.8,77.0,78.8,75.1,72.5,89,78,64,30.11,30.04,11,2,11,0.00
2013-7-17,90.5,82.5,75.2,78.5,74.0,70.6,89,76,59,30.12,30.00,8,1,8,0.00
2013-7-18,92.3,81.4,71.8,77.9,72.5,67.1,88,75,55,30.04,29.96,8,1,8,0.00
2013-7-19,92.5,81.0,72.9,78.0,72.0,67.4,85,75,57,30.03,29.94,9,1,9,0.01
2013-7-20,94.1,78.4,72.0,79.6,71.6,67.2,88,80,56,30.00,29.91,8,1,8,0.38
2013-7-21,96.1,80.2,72.5,78.9,72.7,68.7,89,79,51,30.01,29.91,11,1,11,0.06
2013-7-22,96.3,80.5,75.4,78.2,73.8,71.3,89,81,52,30.02,29.92,12,1,12,0.22
2013-7-23,92.5,80.3,74.0,78.6,73.8,70.6,89,81,61,29.93,29.81,9,2,9,0.00
2013-7-24,89.3,80.2,74.5,77.0,73.3,69.1,90,80,65,29.81,29.70,9,2,9,0.07
2013-7-25,94.7,82.5,73.1,78.8,73.7,68.7,89,76,54,29.85,29.72,8,1,8,0.03
2013-7-26,94.0,83.1,73.4,80.6,75.0,69.0,89,77,60,29.92,29.83,9,1,9,0.00
2013-7-27,95.2,82.5,74.7,80.9,74.0,68.6,90,76,54,29.90,29.77,8,1,8,0.02
2013-7-28,93.8,79.9,73.3,80.4,73.6,68.8,88,81,61,29.94,29.81,9,1,9,0.10
2013-7-29,94.9,82.1,70.6,80.3,73.4,66.7,89,76,59,30.04,29.92,9,2,9,0.00
2013-7-30,97.2,83.5,74.5,82.3,74.8,70.1,87,76,57,30.06,29.98,7,1,8,0.00
2013-7-31,97.2,79.4,73.1,82.0,73.4,69.7,90,82,59,30.02,29.92,8,1,8,0.17
2013-8-1,96.1,78.2,72.0,80.5,72.0,68.2,90,82,55,29.94,29.83,14,1,14,0.67
2013-8-2,96.3,82.0,71.3,80.3,73.4,67.3,91,76,54,29.92,29.82,10,1,10,0.00
2013-8-3,96.5,83.2,73.3,80.6,74.8,69.0,89,77,56,29.94,29.85,9,1,9,0.05
2013-8-4,97.6,85.9,77.2,80.9,76.5,73.8,90,75,50,29.93,29.81,8,1,8,0.00
2013-8-5,97.6,85.6,77.9,81.4,76.7,72.9,88,76,55,29.87,29.79,9,1,9,0.00
2013-8-6,92.9,83.8,77.6,79.9,76.5,73.4,89,79,62,29.88,29.78,9,2,9,0.00
2013-8-7,90.7,83.9,79.2,79.2,75.9,73.6,85,77,63,29.90,29.77,9,2,9,0.00
2013-8-8,92.9,82.9,75.8,80.7,75.6,71.6,90,79,61,29.84,29.66,10,2,10,0.08
2013-8-9,95.4,84.4,75.2,81.0,75.3,71.0,89,75,55,29.81,29.65,10,2,10,0.00
2013-8-10,97.2,84.6,74.0,79.1,75.2,69.9,89,74,53,29.76,29.59,9,2,9,0.00
2013-8-11,97.6,85.2,75.4,80.7,75.0,71.4,88,73,52,29.68,29.48,9,2,9,0.00
2013-8-12,96.8,85.4,75.8,81.1,74.9,70.8,87,72,53,29.56,29.28,8,1,8,0.00
2013-8-13,99.0,86.8,75.6,81.0,75.3,70.1,85,70,49,29.35,29.07,7,1,7,0.00
2013-8-14,100.8,85.0,74.7,80.0,74.4,68.9,87,72,45,29.26,28.91,9,2,9,0.18
2013-8-15,96.3,83.1,73.8,80.7,73.9,69.2,89,75,52,29.17,28.86,8,1,9,0.07
2013-8-16,92.7,78.6,72.4,77.4,72.0,67.4,89,81,58,29.12,28.75,12,1,12,0.37
2013-8-17,89.5,83.5,76.0,79.1,76.4,72.2,89,79,66,29.13,28.60,8,2,8,0.11
2013-8-18,92.0,82.5,74.5,80.6,75.8,71.1,90,81,63,28.78,28.51,10,2,10,0.00
2013-8-19,94.0,81.8,75.1,81.4,75.3,71.3,90,81,64,29.96,28.27,7,1,7,0.02
2013-8-20,93.2,83.7,73.6,80.8,75.1,69.6,89,76,60,30.01,29.91,10,2,10,0.00
2013-8-21,92.9,82.6,76.7,80.6,75.2,71.6,88,79,61,30.06,29.91,11,1,11,0.07
2013-8-22,83.5,77.2,73.1,78.7,73.1,69.6,92,87,78,30.06,29.87,9,1,9,1.26
2013-8-23,86.8,77.8,73.4,80.6,73.8,70.7,91,88,76,29.94,29.49,6,0,6,0.65
2013-8-31,77.8,76.5,75.2,70.6,70.0,69.1,81,80,78,29.84,29.59,2,0,2,0.00
2013-9-1,95.6,82.0,72.7,79.1,73.1,67.7,89,76,51,29.85,29.25,9,1,9,1.04
2013-9-2,95.8,79.9,72.2,78.2,72.8,68.4,90,80,53,29.72,28.85,6,1,6,0.45
2013-9-3,94.7,85.9,74.0,79.5,75.2,69.9,88,71,57,29.76,28.77,6,1,6,0.00
2013-9-4,95.0,81.1,73.8,79.1,72.5,69.4,87,76,57,29.64,28.75,9,1,9,0.00
2013-9-5,98.3,83.5,74.2,80.8,74.4,69.2,87,75,50,29.40,28.63,8,1,8,0.00
2013-9-9,80.6,78.9,77.8,69.9,68.8,67.3,75,71,68,30.10,30.05,5,0,5,0.00
2013-9-10,90.4,82.1,73.4,74.1,70.6,67.2,84,69,55,30.16,30.06,11,1,11,0.00
2013-9-11,90.4,80.8,72.4,76.3,71.9,66.6,87,75,61,30.14,30.05,10,1,10,0.00
2013-9-12,90.7,79.0,72.5,78.3,71.6,67.1,88,78,55,30.07,29.91,7,1,8,0.10
2013-9-13,96.5,82.0,71.1,77.9,71.4,66.5,89,72,46,29.92,29.78,5,1,5,0.00
2013-9-14,97.9,82.1,72.7,79.8,73.0,67.2,85,75,45,30.01,29.82,6,1,6,0.15
2013-9-15,93.6,82.4,72.7,80.3,73.4,67.6,88,75,56,30.10,29.98,8,1,8,0.00
2013-9-16,91.8,82.3,73.1,79.5,73.3,68.3,87,75,59,30.10,30.01,9,1,9,0.00
2013-9-17,87.8,79.7,73.1,78.3,72.6,68.5,89,79,65,30.12,30.01,11,1,11,0.20
2013-9-18,84.1,77.2,73.1,74.5,71.4,69.0,92,83,69,30.11,30.02,13,2,13,2.04
2013-9-19,86.9,79.4,71.6,75.4,70.4,66.6,88,75,60,30.09,30.02,8,1,10,0.07
2013-9-20,87.1,77.2,69.3,74.5,68.5,64.1,88,75,59,30.05,29.93,8,1,8,0.02
2013-9-21,92.2,78.2,67.5,76.1,69.1,62.8,89,75,54,29.95,29.75,9,1,9,0.00
2013-9-22,84.6,77.0,73.1,75.7,71.3,68.3,89,83,72,29.84,29.73,7,1,7,0.07
2013-9-23,83.5,76.4,72.4,76.4,71.8,68.1,89,86,76,29.96,29.83,3,0,3,0.08
2013-9-24,85.0,76.3,71.8,77.1,72.2,68.0,92,87,73,29.95,29.80,5,0,5,0.50
2013-9-25,84.4,78.1,74.2,76.5,73.3,70.7,92,85,74,29.81,29.73,7,1,7,0.01
2013-9-26,80.1,74.6,70.2,74.7,70.2,66.4,91,86,78,29.90,29.72,4,0,4,0.09
2013-9-27,80.3,73.2,68.0,72.2,68.4,65.0,91,85,74,29.99,29.86,10,1,10,0.28
2013-9-28,78.5,75.1,72.4,70.3,68.3,66.2,89,80,71,30.06,29.96,6,1,7,0.02
2013-9-29,82.3,75.4,69.5,71.9,68.4,66.2,90,79,68,30.02,29.95,8,1,8,0.79
2013-9-30,82.8,75.0,68.2,69.5,65.4,62.5,88,73,56,30.03,29.92,11,1,11,0.00
2013-10-1,82.6,72.9,68.0,70.4,64.0,60.6,86,74,56,30.10,30.00,6,0,6,0.00
2013-10-2,83.3,72.6,62.8,68.6,64.0,57.9,88,75,59,30.10,30.04,9,1,9,0.00
2013-10-3,86.0,70.6,67.0,74.5,65.6,62.5,89,84,68,30.09,30.02,6,0,6,0.00
2013-10-4,87.7,77.7,69.8,75.3,71.1,66.1,90,81,67,30.10,30.03,2,0,2,0.00
2013-10-5,85.3,77.0,69.3,75.2,71.2,65.6,91,83,71,30.08,30.00,6,0,6,0.00
2013-10-6,89.5,82.0,72.2,78.0,74.4,68.4,90,78,65,30.00,29.87,9,2,9,0.06
2013-10-7,91.4,77.1,71.5,78.2,71.9,67.6,91,85,58,29.87,29.75,7,1,7,0.85
2013-10-8,81.2,73.8,68.4,74.9,69.9,64.9,92,88,79,30.00,29.77,5,1,5,0.19
2013-10-9,73.3,65.4,61.9,65.5,61.7,59.3,92,88,74,30.08,29.98,5,0,5,0.03
2013-10-10,84.6,70.7,61.2,67.9,62.6,58.3,92,77,48,30.07,29.96,6,0,6,0.01
2013-10-11,86.4,71.6,60.7,67.7,61.5,56.8,91,72,47,30.03,29.92,5,0,5,0.00
2013-10-12,89.1,72.7,61.0,67.6,61.6,56.5,88,70,41,30.03,29.95,5,0,5,0.00
2013-10-13,87.5,72.3,61.6,69.9,62.9,56.5,87,74,47,30.08,29.99,8,0,8,0.00
2013-10-14,77.8,70.6,66.2,70.2,65.4,60.9,90,84,74,30.06,29.98,5,0,5,0.08
2013-10-15,73.6,71.0,68.6,69.6,67.2,65.3,93,88,84,30.00,29.93,6,1,6,0.45
2013-10-16,82.8,74.0,67.7,72.6,67.7,64.0,89,81,68,29.97,29.91,7,0,7,0.00
2013-10-17,87.8,74.2,64.8,74.4,67.5,61.2,91,80,61,29.97,29.88,7,1,7,0.00
2013-10-18,91.8,77.0,67.7,76.0,69.5,64.0,90,79,55,29.98,29.88,8,1,8,0.00
2013-10-19,90.2,78.3,71.3,76.5,71.8,66.9,89,81,60,29.93,29.84,9,1,9,0.07
2013-10-20,79.9,72.8,67.9,69.8,65.2,62.8,89,77,61,29.98,29.87,8,0,9,0.00
2013-10-21,83.0,74.2,68.4,75.2,69.4,63.2,90,85,75,30.02,29.93,4,0,8,0.02
2013-10-22,79.6,74.9,71.6,74.9,71.2,68.4,92,88,82,29.95,29.79,5,0,5,0.76
2013-10-23,77.8,68.0,56.5,68.9,58.7,48.6,92,74,45,30.02,29.79,8,0,8,0.03
2013-10-24,73.3,61.1,54.4,57.9,49.6,43.1,82,67,47,30.16,30.01,5,0,5,0.00
2013-10-25,76.9,61.7,50.8,56.7,50.5,46.3,87,69,45,30.25,30.14,5,0,5,0.00
2013-10-26,72.9,60.7,51.1,58.8,51.3,44.4,84,72,59,30.24,30.11,8,0,8,0.00
2013-10-27,74.9,59.8,47.9,53.3,48.3,43.9,88,69,38,30.14,30.08,6,0,6,0.01
2013-10-28,78.5,63.9,52.6,63.6,55.4,47.8,88,75,58,30.21,30.09,8,0,8,0.00
2013-10-29,78.5,67.0,56.9,66.1,59.5,52.4,91,77,61,30.27,30.17,9,0,9,0.00
2013-10-30,81.2,69.9,60.3,68.1,62.0,55.6,89,77,62,30.26,30.15,8,0,8,0.00
2013-10-31,85.5,73.6,64.4,70.8,65.9,60.5,88,78,59,30.15,29.97,10,2,10,0.00
2013-11-1,85.0,75.7,68.4,71.7,68.2,63.7,89,78,61,29.98,29.80,10,2,10,0.00
2013-11-2,75.6,67.4,56.0,70.7,62.8,52.1,91,85,67,29.94,29.75,7,0,7,2.42
2013-11-3,72.4,61.8,52.2,58.8,50.6,46.4,88,69,42,30.18,29.93,9,1,9,0.00
2013-11-4,74.7,67.6,60.5,64.0,58.5,50.2,90,73,60,30.24,30.15,10,2,10,0.23
2013-11-5,72.2,68.3,65.9,66.3,64.6,62.3,92,88,81,30.24,30.16,8,1,8,0.11
2013-11-6,81.2,71.4,65.7,71.2,66.4,61.8,92,85,64,30.16,30.05,7,1,7,0.01
2013-11-7,81.7,71.9,67.0,69.1,65.7,62.7,92,82,58,30.05,29.94,4,0,4,0.00
2013-11-8,69.5,61.9,53.6,63.4,52.3,45.5,82,71,63,30.18,30.00,7,1,7,0.00
2013-11-9,77.0,67.8,62.8,63.4,58.9,53.5,87,74,56,30.22,30.13,9,1,9,0.00
2013-11-10,76.5,66.3,58.0,66.4,59.7,53.8,92,80,61,30.20,30.11,4,0,4,0.00
2013-11-11,76.9,65.5,55.8,63.5,58.7,51.7,90,80,56,30.18,30.09,7,0,7,0.00
2013-11-12,78.3,68.2,60.8,65.2,59.5,48.3,89,75,49,30.12,30.00,5,0,5,0.00
2013-11-13,60.8,53.1,50.0,48.4,43.3,39.3,78,70,62,30.39,30.12,8,2,8,0.00
2013-11-14,69.3,58.7,46.3,59.0,52.0,41.0,87,79,69,30.35,30.19,5,1,5,0.00
2013-11-15,68.4,62.6,54.9,64.7,59.0,51.0,91,88,84,30.21,30.04,5,0,5,0.05
2013-11-16,77.6,68.5,60.5,67.9,63.8,57.9,93,86,68,30.16,30.07,6,0,7,0.01
2013-11-17,81.0,72.4,67.3,73.0,67.9,64.3,92,86,73,30.09,29.97,6,1,6,0.07
2013-11-18,82.4,72.4,67.0,74.9,68.3,63.5,92,87,73,30.00,29.86,6,0,6,0.14
2013-11-19,71.3,64.9,56.2,68.5,56.0,46.1,91,73,64,30.01,29.88,7,1,7,0.00
2013-11-20,70.6,65.7,62.8,64.8,61.7,57.6,92,87,80,30.16,29.99,5,1,5,0.25
2013-11-21,75.4,67.4,64.3,68.4,63.9,61.9,92,89,78,30.23,30.13,4,0,4,0.02
2013-11-22,80.3,69.0,61.0,69.9,64.0,57.3,93,85,64,30.23,30.10,8,1,8,0.02
2013-11-23,85.3,68.8,58.0,69.6,62.3,54.7,91,81,51,30.10,29.97,4,0,6,0.04
2013-11-24,65.5,58.0,53.6,60.2,48.1,41.0,85,70,56,30.31,30.03,10,1,10,0.00
2013-11-25,72.2,64.0,55.3,60.1,54.9,45.1,79,72,61,30.29,30.08,12,2,12,0.00
2013-11-26,76.9,70.3,66.4,72.0,66.3,59.0,91,87,77,30.08,29.65,12,3,12,0.60
2013-11-27,71.5,56.1,40.1,68.5,49.5,31.6,91,79,66,30.18,29.57,10,2,10,0.12
2013-11-28,40.0,38.6,37.6,31.8,30.5,29.3,74,73,71,30.19,30.18,5,1,5,0.00
2013-12-9,85.0,76.8,67.1,72.0,68.2,63.3,88,76,61,30.12,30.02,11,2,11,0.02
2013-12-10,81.4,68.3,54.0,69.3,61.7,45.4,91,80,64,30.21,29.99,7,1,9,0.16
2013-12-11,65.5,58.3,50.2,59.2,52.6,44.6,89,81,73,30.25,30.17,5,0,5,0.00
2013-12-12,66.6,56.8,47.9,50.8,40.4,32.6,78,56,31,30.32,30.20,6,0,6,0.00
2013-12-13,67.7,52.2,44.3,56.4,46.1,38.3,87,80,66,30.28,30.09,7,0,7,0.00
2013-12-14,78.1,70.3,53.6,69.6,65.0,50.1,91,84,72,30.09,29.84,11,2,11,0.30
2013-12-15,67.9,59.5,48.6,63.3,53.6,42.7,91,81,73,30.12,29.81,7,1,7,0.21
2013-12-16,61.0,47.8,39.2,47.5,40.5,34.8,84,77,55,30.21,30.10,5,0,5,0.00
2013-12-17,70.9,51.5,38.7,48.4,41.7,35.1,88,71,38,30.23,30.12,4,0,4,0.00
2013-12-18,65.3,48.6,41.6,42.0,37.8,31.1,85,69,30,30.26,30.14,7,0,7,0.01
2013-12-19,72.0,53.5,38.7,58.8,46.6,34.2,89,78,62,30.26,30.16,5,0,5,0.00
2013-12-20,74.2,62.3,47.3,62.4,55.3,44.0,89,79,63,30.18,30.10,5,0,5,0.00
2013-12-21,83.2,68.5,56.3,70.5,62.4,52.8,91,82,63,30.10,29.99,13,3,13,0.00
2013-12-22,85.0,75.6,68.8,71.9,68.3,64.9,91,79,63,30.09,30.02,14,2,14,0.00
2013-12-23,85.5,76.0,64.6,72.9,68.3,59.7,91,78,62,30.11,30.00,11,2,11,0.01
2013-12-24,64.6,55.0,46.3,59.9,41.1,33.8,88,61,38,30.26,30.07,7,1,7,0.02
2013-12-25,60.8,50.7,41.9,53.6,44.4,34.1,88,79,63,30.26,30.19,4,0,4,0.00
2013-12-26,58.0,54.6,52.2,53.5,49.3,46.6,90,83,76,30.24,30.13,3,0,3,0.00
2013-12-27,60.8,57.2,52.9,55.4,52.8,48.8,88,85,79,30.28,30.18,2,0,2,0.00
2013-12-28,69.1,66.2,59.4,65.6,62.6,52.9,92,88,79,30.24,29.94,11,1,11,0.11
2013-12-29,74.5,68.9,58.7,70.1,65.2,55.4,91,88,83,29.96,29.84,12,2,12,0.45
2013-12-30,67.5,55.8,49.0,55.4,49.2,45.5,89,80,52,30.15,29.95,5,0,5,0.01
2013-12-31,63.4,57.8,54.7,51.4,49.4,47.6,88,74,57,30.28,30.14,3,0,4,0.00
2014-1-1,60.8,56.6,54.0,58.0,52.6,48.7,92,86,80,30.26,30.07,5,0,5,0.61
2014-1-2,64.4,60.1,54.0,62.1,57.5,47.4,93,91,78,30.03,29.70,8,1,8,1.05